createdAt,value
2023-10-16T00:00:42.579Z,7.01
2023-10-16T00:03:14.304Z,7.06
2023-10-16T00:05:50.754Z,7.03
2023-10-16T00:08:24.116Z,7.01
2023-10-16T00:10:59.800Z,6.95
2023-10-16T00:13:36.692Z,6.82
2023-10-16T00:16:09.905Z,6.78
2023-10-16T00:18:41.701Z,6.78
2023-10-16T00:21:16.010Z,6.70
2023-10-16T00:23:49.059Z,6.66
2023-10-16T00:26:21.562Z,6.63
2023-10-16T00:29:02.526Z,6.62
2023-10-16T00:31:39.171Z,6.62
2023-10-16T00:34:10.321Z,6.56
2023-10-16T00:36:41.085Z,6.54
2023-10-16T00:39:17.769Z,6.55
2023-10-16T00:41:50.783Z,6.42
2023-10-16T00:44:23.823Z,6.40
2023-10-16T00:46:55.493Z,6.40
2023-10-16T00:49:26.781Z,6.41
2023-10-16T00:51:57.714Z,6.39
2023-10-16T00:54:34.203Z,6.32
2023-10-16T00:57:08.739Z,6.28
2023-10-16T00:59:41.049Z,6.30
2023-10-16T01:02:17.140Z,6.26
2023-10-16T01:04:49.043Z,6.20
2023-10-16T01:07:21.187Z,6.18
2023-10-16T01:09:54.663Z,6.16
2023-10-16T01:12:31.509Z,6.11
2023-10-16T01:15:02.113Z,6.13
2023-10-16T01:17:36.555Z,6.16
2023-10-16T01:20:10.923Z,6.15
2023-10-16T01:22:41.701Z,6.17
2023-10-16T01:25:17.375Z,6.15
2023-10-16T01:27:48.734Z,6.13
2023-10-16T01:30:20.936Z,6.14
2023-10-16T01:32:51.706Z,6.13
2023-10-16T01:35:24.259Z,6.19
2023-10-16T01:37:56.593Z,6.17
2023-10-16T01:40:38.854Z,6.19
2023-10-16T01:43:18.011Z,6.34
2023-10-16T01:45:55.075Z,6.36
2023-10-16T01:48:26.114Z,6.39
2023-10-16T01:50:56.908Z,6.39
2023-10-16T01:53:34.501Z,6.47
2023-10-16T01:56:16.469Z,6.53
2023-10-16T01:58:51.405Z,6.60
2023-10-16T02:01:24.075Z,6.68
2023-10-16T02:03:55.337Z,6.74
2023-10-16T02:06:27.991Z,6.71
2023-10-16T02:09:01.596Z,6.78
2023-10-16T02:11:38.308Z,6.78
2023-10-16T02:14:08.599Z,6.76
2023-10-16T02:16:43.043Z,6.77
2023-10-16T02:19:18.171Z,6.79
2023-10-16T02:21:48.901Z,6.82
2023-10-16T02:24:19.781Z,6.86
2023-10-16T02:27:03.555Z,6.83
2023-10-16T02:29:35.804Z,6.92
2023-10-16T02:32:06.642Z,6.99
2023-10-16T02:34:37.724Z,6.94
2023-10-16T02:37:11.497Z,6.89
2023-10-16T02:39:43.247Z,6.87
2023-10-16T02:42:18.048Z,6.90
2023-10-16T02:44:52.554Z,6.86
2023-10-16T02:47:28.053Z,6.81
2023-10-16T02:49:58.933Z,6.82
2023-10-16T02:52:31.775Z,6.93
2023-10-16T02:55:02.796Z,6.89
2023-10-16T02:57:36.848Z,6.80
2023-10-16T03:00:18.866Z,6.86
2023-10-16T03:02:53.883Z,6.78
2023-10-16T03:05:26.756Z,6.80
2023-10-16T03:07:57.510Z,6.76
2023-10-16T03:10:27.845Z,6.65
2023-10-16T03:13:07.204Z,6.57
2023-10-16T03:15:47.102Z,6.55
2023-10-16T03:18:23.705Z,6.39
2023-10-16T03:21:07.818Z,6.38
2023-10-16T03:23:43.489Z,6.39
2023-10-16T03:26:21.045Z,6.34
2023-10-16T03:28:54.626Z,6.27
2023-10-16T03:31:25.922Z,6.22
2023-10-16T03:33:57.277Z,6.17
2023-10-16T03:36:28.043Z,6.17
2023-10-16T03:39:04.689Z,6.10
2023-10-16T03:41:40.649Z,6.00
2023-10-16T03:44:16.122Z,5.90
2023-10-16T03:46:48.273Z,5.82
2023-10-16T03:49:19.428Z,5.69
2023-10-16T03:51:52.311Z,5.69
2023-10-16T03:54:32.175Z,5.58
2023-10-16T03:57:09.318Z,5.51
2023-10-16T03:59:44.278Z,5.52
2023-10-16T04:02:18.194Z,5.48
2023-10-16T04:04:49.768Z,5.49
2023-10-16T04:07:20.523Z,5.51
2023-10-16T04:09:56.416Z,5.42
2023-10-16T04:12:27.227Z,5.41
2023-10-16T04:15:05.724Z,5.43
2023-10-16T04:17:37.685Z,5.41
2023-10-16T04:20:22.290Z,5.39
2023-10-16T04:22:59.896Z,5.39
2023-10-16T04:25:41.624Z,5.42
2023-10-16T04:28:20.429Z,5.44
2023-10-16T04:30:54.298Z,5.44
2023-10-16T04:33:45.506Z,5.40
2023-10-16T04:36:37.651Z,5.41
2023-10-16T04:39:30.426Z,5.29
2023-10-16T04:42:14.166Z,5.25
2023-10-16T04:45:24.642Z,5.17
2023-10-16T04:48:25.057Z,5.17
2023-10-16T04:51:33.985Z,5.20
2023-10-16T04:54:18.038Z,5.16
2023-10-16T04:57:15.498Z,5.18
2023-10-16T05:00:14.099Z,5.25
2023-10-16T05:02:53.417Z,5.32
2023-10-16T05:05:57.796Z,5.32
2023-10-16T05:09:00.718Z,5.38
2023-10-16T05:11:37.809Z,5.46
2023-10-16T05:14:21.171Z,5.52
2023-10-16T05:17:17.485Z,5.56
2023-10-16T05:19:46.597Z,5.72
2023-10-16T05:22:33.037Z,5.68
2023-10-16T05:25:16.204Z,5.75
2023-10-16T05:27:59.357Z,5.76
2023-10-16T05:30:41.962Z,5.94
2023-10-16T05:33:24.722Z,5.97
2023-10-16T05:36:07.606Z,5.96
2023-10-16T05:38:53.294Z,6.05
2023-10-16T05:41:35.914Z,6.06
2023-10-16T05:44:18.542Z,6.06
2023-10-16T05:47:01.723Z,6.12
2023-10-16T05:49:47.299Z,6.26
2023-10-16T05:52:32.415Z,6.51
2023-10-16T05:55:18.182Z,6.66
2023-10-16T05:58:01.589Z,6.99
2023-10-16T06:00:45.027Z,7.22
2023-10-16T06:03:28.200Z,7.30
2023-10-16T06:06:11.540Z,7.58
2023-10-16T06:08:54.699Z,7.77
2023-10-16T06:11:48.004Z,8.14
2023-10-16T06:14:18.820Z,8.34
2023-10-16T06:16:55.027Z,8.58
2023-10-16T06:19:26.016Z,8.56
2023-10-16T06:22:07.804Z,8.67
2023-10-16T06:24:43.495Z,9.04
2023-10-16T06:27:21.397Z,9.02
2023-10-16T06:29:56.033Z,9.25
2023-10-16T06:32:32.559Z,9.43
2023-10-16T06:35:03.943Z,9.80
2023-10-16T06:37:37.861Z,9.79
2023-10-16T06:40:18.032Z,9.92
2023-10-16T06:43:11.114Z,10.29
2023-10-16T06:45:58.011Z,10.67
2023-10-16T06:48:30.326Z,10.87
2023-10-16T06:51:05.828Z,10.86
2023-10-16T06:53:38.997Z,11.19
2023-10-16T06:56:15.814Z,11.05
2023-10-16T06:58:54.448Z,11.02
2023-10-16T07:01:28.709Z,11.13
2023-10-16T07:04:02.652Z,11.06
2023-10-16T07:06:36.413Z,11.35
2023-10-16T07:09:07.678Z,11.42
2023-10-16T07:11:43.812Z,11.50
2023-10-16T07:14:18.965Z,11.72
2023-10-16T07:16:49.784Z,12.12
2023-10-16T07:19:23.052Z,12.15
2023-10-16T07:21:53.435Z,12.48
2023-10-16T07:24:24.062Z,12.45
2023-10-16T07:26:57.291Z,12.89
2023-10-16T07:29:30.747Z,13.03
2023-10-16T07:32:03.140Z,12.46
2023-10-16T07:34:34.580Z,12.46
2023-10-16T07:37:06.211Z,12.68
2023-10-16T07:39:40.185Z,12.75
2023-10-16T07:42:11.836Z,12.90
2023-10-16T07:44:46.893Z,12.99
2023-10-16T07:47:21.987Z,13.29
2023-10-16T07:49:52.721Z,13.65
2023-10-16T07:52:23.070Z,13.70
2023-10-16T07:54:53.314Z,13.52
2023-10-16T07:57:25.668Z,13.40
2023-10-16T08:00:14.811Z,13.71
2023-10-16T08:02:49.151Z,13.72
2023-10-16T08:05:20.304Z,13.52
2023-10-16T08:07:51.140Z,13.57
2023-10-16T08:10:33.986Z,13.59
2023-10-16T08:13:13.140Z,13.31
2023-10-16T08:15:51.187Z,13.09
2023-10-16T08:18:27.230Z,13.12
2023-10-16T08:21:07.708Z,13.35
2023-10-16T08:23:39.701Z,13.70
2023-10-16T08:26:16.320Z,13.93
2023-10-16T08:28:49.273Z,13.66
2023-10-16T08:31:36.721Z,13.88
2023-10-16T08:34:11.862Z,13.94
2023-10-16T08:36:42.137Z,14.18
2023-10-16T08:39:17.283Z,14.35
2023-10-16T08:41:53.803Z,14.22
2023-10-16T08:44:27.965Z,14.51
2023-10-16T08:47:17.531Z,14.44
2023-10-16T08:49:58.913Z,14.68
2023-10-16T08:52:36.240Z,14.64
2023-10-16T08:55:16.333Z,15.13
2023-10-16T08:57:49.619Z,15.04
2023-10-16T09:00:24.376Z,15.05
2023-10-16T09:02:59.650Z,15.09
2023-10-16T09:05:31.338Z,15.03
2023-10-16T09:08:02.116Z,15.04
2023-10-16T09:10:34.792Z,15.05
2023-10-16T09:13:20.837Z,14.96
2023-10-16T09:15:56.607Z,15.23
2023-10-16T09:18:29.271Z,15.27
2023-10-16T09:21:02.118Z,15.13
2023-10-16T09:23:37.820Z,15.18
2023-10-16T09:26:13.098Z,14.94
2023-10-16T09:28:43.618Z,14.92
2023-10-16T09:31:19.939Z,15.13
2023-10-16T09:33:54.169Z,15.36
2023-10-16T09:36:24.906Z,15.62
2023-10-16T09:38:58.143Z,15.54
2023-10-16T09:41:44.773Z,15.86
2023-10-16T09:44:38.371Z,15.76
2023-10-16T09:47:25.293Z,15.68
2023-10-16T09:50:02.313Z,15.59
2023-10-16T09:52:34.973Z,15.56
2023-10-16T09:55:07.162Z,15.70
2023-10-16T09:57:52.148Z,15.82
2023-10-16T10:00:30.383Z,16.02
2023-10-16T10:03:13.150Z,16.41
2023-10-16T10:05:56.751Z,16.06
2023-10-16T10:08:52.821Z,15.95
2023-10-16T10:11:39.249Z,16.13
2023-10-16T10:14:30.477Z,16.06
2023-10-16T10:17:05.544Z,16.31
2023-10-16T10:19:44.082Z,16.39
2023-10-16T10:22:19.697Z,16.50
2023-10-16T10:24:53.597Z,16.71
2023-10-16T10:27:27.491Z,16.81
2023-10-16T10:30:05.037Z,16.82
2023-10-16T10:32:37.069Z,16.68
2023-10-16T10:35:28.244Z,16.64
2023-10-16T10:38:18.814Z,16.80
2023-10-16T10:41:19.630Z,16.78
2023-10-16T10:43:51.556Z,16.72
2023-10-16T10:46:29.988Z,16.81
2023-10-16T10:49:06.282Z,16.91
2023-10-16T10:51:38.475Z,17.04
2023-10-16T10:54:14.254Z,17.15
2023-10-16T10:56:49.361Z,17.16
2023-10-16T10:59:42.384Z,17.02
2023-10-16T11:02:24.020Z,17.21
2023-10-16T11:05:00.307Z,17.33
2023-10-16T11:07:41.386Z,17.46
2023-10-16T11:10:17.405Z,17.25
2023-10-16T11:12:47.772Z,16.73
2023-10-16T11:15:23.535Z,16.66
2023-10-16T11:18:07.163Z,16.71
2023-10-16T11:20:41.056Z,16.76
2023-10-16T11:23:14.101Z,16.91
2023-10-16T11:25:51.510Z,16.65
2023-10-16T11:28:29.810Z,16.43
2023-10-16T11:31:02.092Z,16.71
2023-10-16T11:33:45.842Z,16.65
2023-10-16T11:36:17.884Z,16.63
2023-10-16T11:38:49.029Z,16.63
2023-10-16T11:41:22.267Z,16.58
2023-10-16T11:43:55.604Z,16.15
2023-10-16T11:46:35.503Z,16.29
2023-10-16T11:52:24.521Z,16.29
2023-10-16T11:55:01.312Z,16.23
2023-10-16T11:57:36.573Z,16.60
2023-10-16T12:00:19.971Z,16.71
2023-10-16T12:02:51.329Z,16.84
2023-10-16T12:05:22.304Z,16.47
2023-10-16T12:07:54.005Z,16.46
2023-10-16T12:10:24.591Z,16.05
2023-10-16T12:13:00.467Z,16.17
2023-10-16T12:15:31.345Z,16.21
2023-10-16T12:18:04.450Z,16.30
2023-10-16T12:20:37.532Z,16.23
2023-10-16T12:23:08.444Z,16.45
2023-10-16T12:25:38.785Z,16.49
2023-10-16T12:28:11.789Z,16.23
2023-10-16T12:30:45.919Z,16.30
2023-10-16T12:33:16.762Z,16.30
2023-10-16T12:35:49.113Z,16.32
2023-10-16T12:38:20.710Z,15.96
2023-10-16T12:40:53.573Z,15.75
2023-10-16T12:43:32.053Z,15.71
2023-10-16T12:46:03.184Z,15.65
2023-10-16T12:48:33.707Z,15.76
2023-10-16T12:51:12.077Z,15.75
2023-10-16T12:53:50.468Z,15.75
2023-10-16T12:56:26.777Z,15.69
2023-10-16T12:59:01.005Z,15.75
2023-10-16T13:01:32.202Z,15.76
2023-10-16T13:04:05.070Z,15.66
2023-10-16T13:06:35.618Z,15.56
2023-10-16T13:09:07.536Z,15.67
2023-10-16T13:11:39.810Z,15.60
2023-10-16T13:14:14.390Z,15.53
2023-10-16T13:16:54.671Z,15.55
2023-10-16T13:19:28.924Z,15.46
2023-10-16T13:22:10.086Z,15.36
2023-10-16T13:24:42.531Z,15.50
2023-10-16T13:27:12.846Z,15.56
2023-10-16T13:29:47.179Z,15.60
2023-10-16T13:32:17.570Z,15.60
2023-10-16T13:34:47.960Z,15.35
2023-10-16T13:37:19.918Z,15.38
2023-10-16T13:39:50.231Z,15.49
2023-10-16T13:42:22.617Z,15.38
2023-10-16T13:44:59.961Z,15.27
2023-10-16T13:47:36.056Z,15.46
2023-10-16T13:50:11.131Z,15.44
2023-10-16T13:52:43.829Z,15.25
2023-10-16T13:55:22.111Z,15.15
2023-10-16T13:58:02.292Z,15.22
2023-10-16T14:00:39.787Z,15.18
2023-10-16T14:03:18.705Z,15.05
2023-10-16T14:05:53.531Z,15.01
2023-10-16T14:08:28.406Z,15.00
2023-10-16T14:11:01.547Z,14.96
2023-10-16T14:13:33.798Z,14.87
2023-10-16T14:16:12.860Z,14.86
2023-10-16T14:18:45.234Z,14.78
2023-10-16T14:21:18.650Z,14.70
2023-10-16T14:23:52.432Z,14.70
2023-10-16T14:26:26.018Z,14.72
2023-10-16T14:29:01.059Z,14.72
2023-10-16T14:31:37.570Z,14.60
2023-10-16T14:34:10.111Z,14.53
2023-10-16T14:36:47.263Z,14.47
2023-10-16T14:39:18.804Z,14.48
2023-10-16T14:41:51.388Z,14.38
2023-10-16T14:44:25.379Z,14.36
2023-10-16T14:46:59.299Z,14.25
2023-10-16T14:49:32.215Z,14.13
2023-10-16T14:52:04.337Z,14.09
2023-10-16T14:54:34.686Z,14.12
2023-10-16T14:57:05.594Z,14.03
2023-10-16T14:59:36.642Z,13.92
2023-10-16T15:02:12.757Z,13.94
2023-10-16T15:04:45.921Z,13.85
2023-10-16T15:07:17.569Z,13.75
2023-10-16T15:09:48.175Z,13.73
2023-10-16T15:12:21.315Z,13.68
2023-10-16T15:14:59.164Z,13.56
2023-10-16T15:17:51.425Z,13.39
2023-10-16T15:20:26.270Z,13.23
2023-10-16T15:22:59.369Z,13.10
2023-10-16T15:25:30.850Z,12.96
2023-10-16T15:28:02.612Z,12.83
2023-10-16T15:30:33.453Z,12.80
2023-10-16T15:33:13.313Z,12.70
2023-10-16T15:35:46.510Z,12.75
2023-10-16T15:38:21.276Z,12.70
2023-10-16T15:40:51.643Z,12.67
2023-10-16T15:43:22.169Z,12.68
2023-10-16T15:45:52.558Z,12.62
2023-10-16T15:48:31.021Z,12.51
2023-10-16T15:51:02.007Z,12.43
2023-10-16T15:53:42.318Z,12.33
2023-10-16T15:56:12.803Z,12.20
2023-10-16T15:58:43.660Z,12.09
2023-10-16T16:01:22.987Z,11.97
2023-10-16T16:04:02.638Z,11.86
2023-10-16T16:06:34.875Z,11.78
2023-10-16T16:09:13.804Z,11.67
2023-10-16T16:11:45.709Z,11.64
2023-10-16T16:14:20.076Z,11.54
2023-10-16T16:16:54.459Z,11.46
2023-10-16T16:19:29.539Z,11.34
2023-10-16T16:22:00.321Z,11.19
2023-10-16T16:24:33.411Z,11.09
2023-10-16T16:27:08.612Z,11.09
2023-10-16T16:28:22.160Z,16.36
2023-10-16T16:29:41.759Z,11.14
2023-10-16T16:32:14.128Z,10.97
2023-10-16T16:34:47.625Z,10.91
2023-10-16T16:37:21.522Z,11.05
2023-10-16T16:39:52.567Z,11.03
2023-10-16T16:42:23.873Z,10.94
2023-10-16T16:44:55.950Z,10.87
2023-10-16T16:47:26.827Z,10.76
2023-10-16T16:50:04.700Z,10.59
2023-10-16T16:52:41.841Z,10.41
2023-10-16T16:55:16.857Z,10.22
2023-10-16T16:57:50.619Z,10.09
2023-10-16T17:00:28.118Z,9.89
2023-10-16T17:03:03.488Z,9.76
2023-10-16T17:05:40.367Z,9.66
2023-10-16T17:08:24.667Z,9.58
2023-10-16T17:10:57.250Z,9.45
2023-10-16T17:13:31.760Z,9.34
2023-10-16T17:16:10.108Z,9.24
2023-10-16T17:18:45.104Z,9.13
2023-10-16T17:21:37.371Z,9.07
2023-10-16T17:24:12.172Z,9.00
2023-10-16T17:26:45.879Z,8.94
2023-10-16T17:29:25.760Z,8.85
2023-10-16T17:31:56.962Z,8.85
2023-10-16T17:34:28.820Z,8.78
2023-10-16T17:37:10.931Z,8.71
2023-10-16T17:39:41.799Z,8.58
2023-10-16T17:42:15.177Z,8.51
2023-10-16T17:44:49.100Z,8.47
2023-10-16T17:47:21.126Z,8.42
2023-10-16T17:50:00.550Z,8.35
2023-10-16T17:52:39.917Z,8.27
2023-10-16T17:55:15.759Z,8.28
2023-10-16T17:57:46.680Z,8.23
2023-10-16T18:00:22.178Z,8.18
2023-10-16T18:02:53.034Z,8.15
2023-10-16T18:05:27.152Z,8.24
2023-10-16T18:08:05.921Z,8.27
2023-10-16T18:10:41.462Z,8.31
2023-10-16T18:13:14.097Z,8.28
2023-10-16T18:15:53.105Z,8.26
2023-10-16T18:18:27.027Z,8.23
2023-10-16T18:21:02.289Z,8.19
2023-10-16T18:23:37.696Z,8.16
2023-10-16T18:26:09.646Z,8.12
2023-10-16T18:28:42.994Z,8.06
2023-10-16T18:31:15.177Z,8.01
2023-10-16T18:33:54.681Z,7.96
2023-10-16T18:36:30.028Z,7.99
2023-10-16T18:39:11.321Z,8.03
2023-10-16T18:41:42.876Z,8.00
2023-10-16T18:44:15.674Z,7.97
2023-10-16T18:46:50.255Z,7.93
2023-10-16T18:49:25.889Z,7.92
2023-10-16T18:51:57.113Z,7.97
2023-10-16T18:54:32.860Z,7.92
2023-10-16T18:57:05.944Z,7.85
2023-10-16T18:59:37.237Z,7.87
2023-10-16T19:02:10.613Z,7.81
2023-10-16T19:04:41.472Z,7.78
2023-10-16T19:07:15.361Z,7.74
2023-10-16T19:09:49.749Z,7.77
2023-10-16T19:12:22.123Z,7.74
2023-10-16T19:14:55.117Z,7.74
2023-10-16T19:17:29.193Z,7.68
2023-10-16T19:20:08.942Z,7.62
2023-10-16T19:22:45.266Z,7.61
2023-10-16T19:25:18.839Z,7.51
2023-10-16T19:27:49.639Z,7.41
2023-10-16T19:30:21.488Z,7.39
2023-10-16T19:32:53.695Z,7.31
2023-10-16T19:35:25.501Z,7.19
2023-10-16T19:37:56.365Z,7.15
2023-10-16T19:40:31.344Z,7.10
2023-10-16T19:43:02.346Z,7.01
2023-10-16T19:45:33.914Z,6.95
2023-10-16T19:48:06.238Z,6.91
2023-10-16T19:50:37.714Z,6.89
2023-10-16T19:53:10.673Z,6.86
2023-10-16T19:55:46.388Z,6.72
2023-10-16T19:58:18.111Z,6.64
2023-10-16T20:00:49.182Z,6.54
2023-10-16T20:03:22.213Z,6.48
2023-10-16T20:05:53.130Z,6.41
2023-10-16T20:08:24.799Z,6.32
2023-10-16T20:10:58.163Z,6.28
2023-10-16T20:13:29.048Z,6.25
2023-10-16T20:16:00.478Z,6.22
2023-10-16T20:18:31.212Z,6.17
2023-10-16T20:21:07.233Z,6.15
2023-10-16T20:23:38.163Z,6.09
2023-10-16T20:26:18.226Z,6.10
2023-10-16T20:28:50.507Z,6.10
2023-10-16T20:31:26.076Z,6.02
2023-10-16T20:34:00.706Z,6.00
2023-10-16T20:36:31.472Z,5.96
2023-10-16T20:39:02.029Z,5.94
2023-10-16T20:41:38.063Z,5.92
2023-10-16T20:44:09.939Z,5.91
2023-10-16T20:46:40.734Z,5.96
2023-10-16T20:49:11.055Z,5.98
2023-10-16T20:51:42.095Z,5.95
2023-10-16T20:54:13.909Z,5.97
2023-10-16T20:56:47.405Z,5.95
2023-10-16T20:59:18.254Z,5.94
2023-10-16T21:01:51.381Z,5.89
2023-10-16T21:04:21.681Z,5.85
2023-10-16T21:06:54.451Z,5.79
2023-10-16T21:09:25.005Z,5.69
2023-10-16T21:11:58.471Z,5.62
2023-10-16T21:14:29.410Z,5.59
2023-10-16T21:17:00.332Z,5.58
2023-10-16T21:19:30.811Z,5.60
2023-10-16T21:22:01.704Z,5.59
2023-10-16T21:24:32.895Z,5.69
2023-10-16T21:27:07.694Z,5.72
2023-10-16T21:29:38.499Z,5.71
2023-10-16T21:32:11.625Z,5.70
2023-10-16T21:34:42.409Z,5.69
2023-10-16T21:37:15.712Z,5.63
2023-10-16T21:39:48.278Z,5.61
2023-10-16T21:42:22.218Z,5.57
2023-10-16T21:44:53.498Z,5.53
2023-10-16T21:47:24.571Z,5.50
2023-10-16T21:49:55.807Z,5.46
2023-10-16T21:52:27.412Z,5.47
2023-10-16T21:54:59.807Z,5.43
2023-10-16T21:57:32.964Z,5.40
2023-10-16T22:00:13.002Z,5.35
2023-10-16T22:02:47.764Z,5.29
2023-10-16T22:05:19.582Z,5.21
2023-10-16T22:07:52.144Z,5.18
2023-10-16T22:10:24.026Z,5.14
2023-10-16T22:12:57.319Z,5.13
2023-10-16T22:15:28.426Z,5.11
2023-10-16T22:18:03.123Z,5.05
2023-10-16T22:20:34.238Z,5.00
2023-10-16T22:23:05.056Z,4.93
2023-10-16T22:25:37.225Z,4.92
2023-10-16T22:28:10.516Z,4.92
2023-10-16T22:30:42.076Z,4.89
2023-10-16T22:33:13.038Z,4.88
2023-10-16T22:35:44.269Z,4.88
2023-10-16T22:38:14.984Z,4.89
2023-10-16T22:40:46.334Z,4.86
2023-10-16T22:43:18.944Z,4.91
2023-10-16T22:45:49.941Z,4.87
2023-10-16T22:48:20.771Z,4.85
2023-10-16T22:50:52.305Z,4.84
2023-10-16T22:53:23.082Z,4.81
2023-10-16T22:55:54.190Z,4.75
2023-10-16T22:58:28.309Z,4.79
2023-10-16T23:01:02.062Z,4.73
2023-10-16T23:03:33.045Z,4.68
2023-10-16T23:06:04.007Z,4.63
2023-10-16T23:08:40.464Z,4.52
2023-10-16T23:11:19.400Z,4.47
2023-10-16T23:13:55.273Z,4.52
2023-10-16T23:16:27.582Z,4.42
2023-10-16T23:19:10.312Z,4.40
2023-10-16T23:21:44.014Z,4.35
2023-10-16T23:24:14.647Z,4.37
2023-10-16T23:26:45.470Z,4.40
2023-10-16T23:29:21.236Z,4.38
2023-10-16T23:31:56.470Z,4.32
2023-10-16T23:34:27.878Z,4.27
2023-10-16T23:37:04.490Z,4.31
2023-10-16T23:39:35.564Z,4.29
2023-10-16T23:42:18.529Z,4.30
2023-10-16T23:44:52.185Z,4.29
2023-10-16T23:47:23.070Z,4.28
2023-10-16T23:49:53.803Z,4.30
2023-10-16T23:52:38.049Z,4.29
2023-10-16T23:55:15.289Z,4.23
2023-10-16T23:57:52.860Z,4.23
